createdAt,value
2019-05-16T03:06:27.313Z,20.5
2019-05-16T03:07:46.995Z,20.5
2019-05-16T03:08:57.456Z,20.4
2019-05-16T03:09:47.256Z,20.4
2019-05-16T03:10:37.307Z,20.4
2019-05-16T03:11:27.633Z,20.4
2019-05-16T03:12:17.685Z,20.4
2019-05-16T03:13:10.891Z,20.4
2019-05-16T03:14:01.094Z,20.4
2019-05-16T03:14:54.432Z,20.4
2019-05-16T03:15:41.174Z,20.4
2019-05-16T03:16:32.125Z,20.4
2019-05-16T03:17:21.767Z,20.4
2019-05-16T03:18:11.862Z,20.4
2019-05-16T03:19:01.754Z,20.4
2019-05-16T03:19:52.048Z,20.5
2019-05-16T03:20:41.187Z,20.4
2019-05-16T03:21:31.238Z,20.4
2019-05-16T03:22:22.333Z,20.5
2019-05-16T03:23:11.679Z,20.5
2019-05-16T03:24:01.777Z,20.5
2019-05-16T03:24:51.970Z,20.5
2019-05-16T03:25:42.230Z,20.5
2019-05-16T03:26:31.887Z,20.5
2019-05-16T03:27:22.461Z,20.5
2019-05-16T03:28:12.054Z,20.5
2019-05-16T03:29:02.013Z,20.4
2019-05-16T03:29:51.403Z,20.5
2019-05-16T03:30:45.825Z,20.5
2019-05-16T03:31:35.235Z,20.5
2019-05-16T03:32:24.973Z,20.4
2019-05-16T03:33:39.250Z,20.5
2019-05-16T03:35:26.171Z,20.5
2019-05-16T03:36:17.026Z,20.5
2019-05-16T03:37:05.810Z,20.5
2019-05-16T03:38:05.985Z,20.4
2019-05-16T03:38:42.305Z,20.5
2019-05-16T03:39:32.259Z,20.5
2019-05-16T03:40:22.509Z,20.4
2019-05-16T03:41:12.692Z,20.5
2019-05-16T03:42:02.284Z,20.4
2019-05-16T03:42:53.107Z,20.4
2019-05-16T03:43:42.427Z,20.5
2019-05-16T03:44:32.743Z,20.5
2019-05-16T03:45:22.484Z,20.5
2019-05-16T03:46:12.968Z,20.5
2019-05-16T03:47:02.638Z,20.4
2019-05-16T03:47:52.964Z,20.4
2019-05-16T03:48:43.029Z,20.4
2019-05-16T03:49:33.083Z,20.4
2019-05-16T03:50:22.886Z,20.4
2019-05-16T03:51:13.197Z,20.4
2019-05-16T03:52:03.001Z,20.5
2019-05-16T03:52:53.335Z,20.4
2019-05-16T03:53:43.441Z,20.5
2019-05-16T03:54:33.174Z,20.4
2019-05-16T03:55:23.518Z,20.5
2019-05-16T03:56:13.581Z,20.4
2019-05-16T03:57:03.653Z,20.5
2019-05-16T03:57:53.688Z,20.5
2019-05-16T03:58:43.755Z,20.5
2019-05-16T03:59:33.838Z,20.4
2019-05-16T04:00:23.630Z,20.5
2019-05-16T04:01:13.941Z,20.5
2019-05-16T04:02:04.011Z,20.4
2019-05-16T04:02:53.806Z,20.5
2019-05-16T04:03:44.123Z,20.5
2019-05-16T04:04:34.185Z,20.5
2019-05-16T04:05:23.981Z,20.5
2019-05-16T04:06:14.067Z,20.4
2019-05-16T04:07:04.388Z,20.5
2019-05-16T04:08:25.656Z,20.5
2019-05-16T04:09:34.280Z,20.6
2019-05-16T04:10:24.632Z,20.5
2019-05-16T04:11:22.980Z,20.5
2019-05-16T04:12:04.772Z,20.5
2019-05-16T04:12:54.525Z,20.4
2019-05-16T04:13:44.576Z,20.5
2019-05-16T04:14:34.919Z,20.4
2019-05-16T04:15:24.997Z,20.5
2019-05-16T04:16:15.068Z,20.4
2019-05-16T04:17:05.136Z,20.5
2019-05-16T04:17:55.160Z,20.5
2019-05-16T04:18:45.259Z,20.4
2019-05-16T04:19:35.028Z,20.5
2019-05-16T04:20:25.357Z,20.5
2019-05-16T04:21:22.292Z,20.5
2019-05-16T04:22:05.472Z,20.5
2019-05-16T04:22:55.280Z,20.5
2019-05-16T04:23:45.325Z,20.5
2019-05-16T04:24:35.654Z,20.5
2019-05-16T04:25:25.724Z,20.5
2019-05-16T04:26:15.772Z,20.4
2019-05-16T04:27:05.287Z,20.5
2019-05-16T04:27:55.907Z,20.5
2019-05-16T04:28:45.981Z,20.5
2019-05-16T04:29:36.025Z,20.5
2019-05-16T04:30:25.832Z,20.5
2019-05-16T04:31:16.142Z,20.5
2019-05-16T04:32:06.210Z,20.5
2019-05-16T04:32:56.264Z,20.6
2019-05-16T04:33:46.056Z,20.5
2019-05-16T04:34:36.396Z,20.5
2019-05-16T04:35:26.458Z,20.4
2019-05-16T04:36:16.238Z,20.5
2019-05-16T04:37:06.573Z,20.5
2019-05-16T04:37:56.383Z,20.5
2019-05-16T04:38:50.985Z,20.6
2019-05-16T04:39:36.478Z,20.5
2019-05-16T04:40:26.822Z,20.6
2019-05-16T04:41:16.882Z,20.5
2019-05-16T04:42:06.952Z,20.5
2019-05-16T04:42:56.720Z,20.5
2019-05-16T04:43:47.061Z,20.5
2019-05-16T04:44:37.130Z,20.5
2019-05-16T04:45:27.196Z,20.4
2019-05-16T04:46:17.248Z,20.5
2019-05-16T04:47:07.054Z,20.6
2019-05-16T04:48:00.209Z,20.5
2019-05-16T04:48:46.883Z,20.6
2019-05-16T04:49:37.228Z,20.5
2019-05-16T04:50:27.570Z,20.5
2019-05-16T04:51:17.623Z,20.4
2019-05-16T04:52:07.673Z,20.6
2019-05-16T04:53:01.144Z,20.5
2019-05-16T04:53:51.308Z,20.6
2019-05-16T04:54:37.577Z,20.6
2019-05-16T04:55:31.363Z,20.5
2019-05-16T04:56:21.274Z,20.5
2019-05-16T04:57:11.532Z,20.6
2019-05-16T04:58:01.229Z,20.5
2019-05-16T04:58:51.991Z,20.5
2019-05-16T04:59:41.346Z,20.5
2019-05-16T05:00:32.378Z,20.5
2019-05-16T05:01:21.949Z,20.5
2019-05-16T05:02:08.414Z,20.5
2019-05-16T05:03:01.763Z,20.5
2019-05-16T05:04:15.552Z,20.5
2019-05-16T05:05:28.097Z,20.5
2019-05-16T05:06:21.806Z,20.6
2019-05-16T05:07:12.044Z,20.5
2019-05-16T05:08:01.670Z,20.6
2019-05-16T05:09:03.779Z,20.6
2019-05-16T05:09:41.754Z,20.5
2019-05-16T05:10:32.137Z,20.5
2019-05-16T05:11:22.406Z,20.5
2019-05-16T05:12:12.244Z,20.5
2019-05-16T05:13:02.496Z,20.6
2019-05-16T05:13:51.716Z,20.6
2019-05-16T05:14:42.512Z,20.6
2019-05-16T05:15:31.711Z,20.5
2019-05-16T05:16:21.363Z,20.5
2019-05-16T05:17:11.761Z,20.6
2019-05-16T05:18:01.395Z,20.5
2019-05-16T05:18:52.368Z,20.5
2019-05-16T05:19:42.360Z,20.5
2019-05-16T05:20:31.463Z,20.5
2019-05-16T05:21:21.748Z,20.5
2019-05-16T05:22:11.493Z,20.6
2019-05-16T05:23:01.193Z,20.5
2019-05-16T05:23:51.901Z,20.5
2019-05-16T05:24:41.120Z,20.5
2019-05-16T05:25:31.924Z,20.5
2019-05-16T05:26:20.773Z,20.5
2019-05-16T05:27:11.518Z,20.5
2019-05-16T05:28:01.589Z,20.5
2019-05-16T05:28:51.847Z,20.6
2019-05-16T05:29:40.937Z,20.5
2019-05-16T05:30:31.111Z,20.6
2019-05-16T05:31:26.552Z,20.5
2019-05-16T05:32:15.538Z,20.5
2019-05-16T05:33:01.467Z,20.5
2019-05-16T05:33:51.776Z,20.5
2019-05-16T05:34:40.944Z,20.5
2019-05-16T05:35:31.863Z,20.6
2019-05-16T05:36:22.135Z,20.6
2019-05-16T05:37:13.660Z,20.5
2019-05-16T05:38:01.475Z,20.5
2019-05-16T05:39:15.650Z,20.5
2019-05-16T05:40:31.213Z,20.5
2019-05-16T05:41:21.278Z,20.6
2019-05-16T05:42:11.620Z,20.5
2019-05-16T05:43:01.399Z,20.5
2019-05-16T05:43:54.367Z,20.5
2019-05-16T05:44:41.242Z,20.6
2019-05-16T05:45:31.700Z,20.6
2019-05-16T05:46:21.665Z,20.5
2019-05-16T05:47:11.349Z,20.5
2019-05-16T05:48:01.784Z,20.5
2019-05-16T05:48:51.336Z,20.5
2019-05-16T05:49:41.333Z,20.5
2019-05-16T05:50:31.665Z,20.5
2019-05-16T05:51:22.011Z,20.5
2019-05-16T05:52:13.448Z,20.5
2019-05-16T05:53:02.593Z,20.5
2019-05-16T05:53:52.196Z,20.5
2019-05-16T05:54:42.252Z,20.5
2019-05-16T05:55:32.531Z,20.5
2019-05-16T05:56:22.365Z,20.5
2019-05-16T05:57:12.169Z,20.5
2019-05-16T05:58:02.504Z,20.5
2019-05-16T05:58:52.569Z,20.5
2019-05-16T05:59:42.622Z,20.5
2019-05-16T06:00:32.409Z,20.5
2019-05-16T06:01:22.481Z,20.5
2019-05-16T06:02:12.817Z,20.5
2019-05-16T06:04:27.174Z,20.5
2019-05-16T06:05:16.967Z,20.5
2019-05-16T06:06:07.042Z,20.5
2019-05-16T06:06:57.079Z,20.5
2019-05-16T06:07:47.408Z,20.5
2019-05-16T06:08:37.206Z,20.6
2019-05-16T06:09:33.589Z,20.5
2019-05-16T06:11:07.383Z,20.5
2019-05-16T06:11:57.707Z,20.5
2019-05-16T06:12:50.509Z,20.6
2019-05-16T06:13:37.588Z,20.5
2019-05-16T06:14:30.432Z,20.5
2019-05-16T06:15:17.401Z,20.5
2019-05-16T06:16:08.001Z,20.5
2019-05-16T06:17:00.572Z,20.5
2019-05-16T06:17:50.646Z,20.5
2019-05-16T06:18:40.619Z,20.5
2019-05-16T06:19:30.748Z,20.5
2019-05-16T06:20:20.758Z,20.5
2019-05-16T06:21:11.190Z,20.6
2019-05-16T06:22:00.832Z,20.6
2019-05-16T06:22:50.712Z,20.6
2019-05-16T06:23:41.276Z,20.5
2019-05-16T06:24:30.979Z,20.6
2019-05-16T06:25:23.980Z,20.5
2019-05-16T06:26:12.497Z,20.6
2019-05-16T06:27:00.770Z,20.5
2019-05-16T06:27:51.586Z,20.6
2019-05-16T06:28:41.531Z,20.6
2019-05-16T06:29:31.510Z,20.6
2019-05-16T06:30:21.947Z,20.6
2019-05-16T06:31:15.126Z,20.6
2019-05-16T06:32:00.953Z,20.5
2019-05-16T06:32:50.678Z,20.6
2019-05-16T06:33:41.795Z,20.6
2019-05-16T06:34:31.257Z,20.5
2019-05-16T06:35:24.693Z,20.5
2019-05-16T06:36:11.677Z,20.5
2019-05-16T06:37:01.605Z,20.4
2019-05-16T06:37:50.989Z,20.4
2019-05-16T06:38:41.630Z,20.4
2019-05-16T06:39:45.974Z,20.3
2019-05-16T06:40:21.330Z,20.3
2019-05-16T06:41:11.450Z,20.2
2019-05-16T06:42:01.332Z,20.2
2019-05-16T06:42:52.087Z,20.2
2019-05-16T06:43:41.083Z,20.2
2019-05-16T06:44:31.929Z,20.2
2019-05-16T06:45:21.582Z,20.3
2019-05-16T06:46:12.074Z,20.3
2019-05-16T06:47:23.167Z,20.3
2019-05-16T06:48:40.972Z,20.3
2019-05-16T06:49:31.417Z,20.3
2019-05-16T06:50:22.000Z,20.3
2019-05-16T06:51:11.539Z,20.3
2019-05-16T06:52:00.488Z,20.3
2019-05-16T06:52:51.285Z,20.4
2019-05-16T06:53:41.509Z,20.4
2019-05-16T06:54:30.756Z,20.4
2019-05-16T06:55:21.264Z,20.4
2019-05-16T06:56:11.512Z,20.4
2019-05-16T06:57:01.114Z,20.4
2019-05-16T06:57:51.464Z,20.4
2019-05-16T06:58:52.445Z,20.4
2019-05-16T06:59:31.198Z,20.4
2019-05-16T07:00:22.099Z,20.4
2019-05-16T07:01:11.599Z,20.4
2019-05-16T07:02:01.543Z,20.4
2019-05-16T07:04:27.117Z,20.4
2019-05-16T07:05:17.194Z,20.4
2019-05-16T07:06:09.639Z,20.4
2019-05-16T07:08:03.380Z,20.4
2019-05-16T07:08:53.457Z,20.4
2019-05-16T07:10:04.865Z,20.5
2019-05-16T07:11:23.142Z,20.5
2019-05-16T07:12:13.404Z,20.5
2019-05-16T07:13:03.762Z,20.5
2019-05-16T07:13:53.809Z,20.5
2019-05-16T07:14:43.619Z,20.5
2019-05-16T07:15:33.669Z,20.5
2019-05-16T07:16:23.716Z,20.5
2019-05-16T07:17:13.790Z,20.5
2019-05-16T07:18:03.571Z,20.5
2019-05-16T07:18:53.886Z,20.5
2019-05-16T07:19:43.968Z,20.5
2019-05-16T07:20:34.294Z,20.5
2019-05-16T07:21:24.364Z,20.5
2019-05-16T07:22:14.416Z,20.5
2019-05-16T07:23:04.484Z,20.5
2019-05-16T07:23:54.271Z,20.5
2019-05-16T07:24:44.606Z,20.5
2019-05-16T07:25:34.381Z,20.5
2019-05-16T07:26:24.738Z,20.6
2019-05-16T07:27:14.783Z,20.5
2019-05-16T07:28:04.891Z,20.6
2019-05-16T07:28:54.903Z,20.5
2019-05-16T07:29:44.687Z,20.6
2019-05-16T07:30:34.763Z,20.5
2019-05-16T07:31:25.090Z,20.6
2019-05-16T07:54:14.394Z,20.6
2019-05-16T07:55:05.084Z,20.6
2019-05-16T07:55:54.251Z,20.6
2019-05-16T07:56:44.601Z,20.6
2019-05-16T07:57:34.629Z,20.6
2019-05-16T07:58:24.726Z,20.6
2019-05-16T07:59:14.761Z,20.6
2019-05-16T08:00:04.821Z,20.6
2019-05-16T08:01:12.371Z,20.6
2019-05-16T08:01:44.944Z,20.6
2019-05-16T08:02:35.027Z,20.6
2019-05-16T08:03:25.079Z,20.6
2019-05-16T08:04:15.165Z,20.6
2019-05-16T08:05:05.191Z,20.6
2019-05-16T08:05:55.291Z,20.6
2019-05-16T08:06:50.733Z,20.6
2019-05-16T08:07:35.105Z,20.7
2019-05-16T08:08:25.496Z,20.7
2019-05-16T08:09:15.509Z,20.7
2019-05-16T08:10:05.016Z,20.7
2019-05-16T08:10:55.655Z,20.7
2019-05-16T08:11:45.719Z,20.7
2019-05-16T08:12:35.766Z,20.7
2019-05-16T08:13:25.825Z,20.8
2019-05-16T08:14:15.895Z,20.7
2019-05-16T08:15:05.947Z,20.7
2019-05-16T08:15:56.011Z,20.8
2019-05-16T08:16:46.088Z,20.7
2019-05-16T08:17:35.877Z,20.7
2019-05-16T08:18:25.914Z,20.8
2019-05-16T08:19:16.261Z,20.7
2019-05-16T08:22:24.279Z,20.8
2019-05-16T08:23:14.346Z,20.7
2019-05-16T08:24:15.334Z,20.8
2019-05-16T08:24:54.458Z,20.7
2019-05-16T08:25:44.258Z,20.8
2019-05-16T08:28:42.220Z,20.8
2019-05-16T08:29:42.726Z,20.8
2019-05-16T08:30:32.586Z,20.8
2019-05-16T08:34:43.526Z,20.8
2019-05-16T08:35:33.566Z,20.8
2019-05-16T08:36:23.654Z,20.8
2019-05-16T08:39:31.793Z,20.8
2019-05-16T08:40:32.703Z,20.8
2019-05-16T08:44:21.966Z,20.8
2019-05-16T08:45:11.972Z,20.8
2019-05-16T08:46:01.364Z,20.8
2019-05-16T08:47:05.617Z,20.8
2019-05-16T08:47:41.783Z,20.8
2019-05-16T08:48:31.379Z,20.8
2019-05-16T08:49:22.488Z,20.8
2019-05-16T08:50:15.518Z,20.8
2019-05-16T08:51:03.187Z,20.8
2019-05-16T08:51:53.474Z,20.8
2019-05-16T08:52:42.921Z,20.8
2019-05-16T08:53:32.772Z,20.8
2019-05-16T08:54:21.778Z,20.8
2019-05-16T08:55:14.252Z,20.8
2019-05-16T08:56:02.913Z,20.8
2019-05-16T08:56:51.987Z,20.8
2019-05-16T08:59:33.530Z,20.8
2019-05-16T09:00:22.700Z,20.8
2019-05-16T09:01:15.123Z,20.8
2019-05-16T09:02:04.197Z,20.8
2019-05-16T09:02:52.994Z,20.8
2019-05-16T09:03:42.674Z,20.8
2019-05-16T09:04:35.066Z,20.8
2019-05-16T09:05:23.580Z,20.8
2019-05-16T09:06:12.482Z,20.8
2019-05-16T09:07:03.061Z,20.8
2019-05-16T09:07:49.248Z,20.8
2019-05-16T09:08:39.268Z,20.8
2019-05-16T09:11:04.745Z,20.8
2019-05-16T09:12:48.923Z,20.8
2019-05-16T09:13:39.263Z,20.8
2019-05-16T09:14:39.558Z,20.8
2019-05-16T09:15:19.386Z,20.8
2019-05-16T09:16:09.178Z,20.8
2019-05-16T09:16:59.511Z,20.8
2019-05-16T09:17:49.585Z,20.8
2019-05-16T09:18:46.686Z,20.8
2019-05-16T09:19:29.425Z,20.8
2019-05-16T09:20:19.763Z,20.8
2019-05-16T09:21:09.601Z,20.8
2019-05-16T09:21:59.893Z,20.8
2019-05-16T09:22:49.687Z,20.8
2019-05-16T09:23:40.026Z,20.8
2019-05-16T09:24:29.541Z,20.8
2019-05-16T09:25:20.198Z,20.8
2019-05-16T09:26:10.203Z,20.8
2019-05-16T09:27:00.026Z,20.8
2019-05-16T09:27:50.328Z,20.8
2019-05-16T09:28:40.393Z,20.8
2019-05-16T09:29:30.171Z,20.8
2019-05-16T09:30:20.509Z,20.8
2019-05-16T09:31:10.310Z,20.8
2019-05-16T09:32:21.788Z,20.8
2019-05-16T09:33:40.521Z,20.8
2019-05-16T09:34:30.824Z,20.8
2019-05-16T09:35:20.896Z,20.8
2019-05-16T09:36:10.952Z,20.8
2019-05-16T09:37:02.950Z,20.8
2019-05-16T09:37:50.808Z,20.8
2019-05-16T09:38:41.137Z,20.8
2019-05-16T09:39:31.204Z,20.8
2019-05-16T09:40:21.012Z,20.8
2019-05-16T09:41:11.065Z,20.8
2019-05-16T09:42:01.412Z,20.8
2019-05-16T09:42:51.167Z,20.8
2019-05-16T09:43:41.246Z,20.8
2019-05-16T09:44:31.588Z,20.8
2019-05-16T09:45:21.359Z,20.8
2019-05-16T09:46:11.429Z,20.8
2019-05-16T09:47:01.492Z,20.8
2019-05-16T09:47:51.849Z,20.8
2019-05-16T09:48:41.615Z,20.8
2019-05-16T09:49:31.692Z,20.8
2019-05-16T09:50:22.001Z,20.8
2019-05-16T09:51:11.514Z,20.8
2019-05-16T09:52:02.137Z,20.9
2019-05-16T09:52:51.919Z,20.8
2019-05-16T09:53:42.271Z,20.9
2019-05-16T09:54:32.053Z,20.8
2019-05-16T09:55:22.404Z,20.9
2019-05-16T09:56:12.429Z,20.9
2019-05-16T09:57:02.516Z,20.9
2019-05-16T09:57:58.970Z,20.9
2019-05-16T09:58:42.353Z,20.8
2019-05-16T09:59:32.689Z,20.9
2019-05-16T10:00:22.770Z,20.9
2019-05-16T10:01:12.535Z,20.9
2019-05-16T10:02:03.045Z,20.8
2019-05-16T10:02:52.938Z,20.9
2019-05-16T10:05:27.896Z,20.9
2019-05-16T10:06:20.272Z,20.9
2019-05-16T10:07:07.756Z,20.9
2019-05-16T10:07:58.418Z,20.8
2019-05-16T10:08:47.504Z,20.8
2019-05-16T10:09:50.653Z,20.9
2019-05-16T10:10:27.079Z,20.9
2019-05-16T10:11:18.969Z,20.9
2019-05-16T10:12:18.936Z,20.9
2019-05-16T10:12:57.533Z,20.8
2019-05-16T10:13:48.282Z,20.8
2019-05-16T10:14:38.591Z,20.9
2019-05-16T10:15:27.523Z,20.9
2019-05-16T10:16:17.620Z,20.9
2019-05-16T10:17:09.183Z,20.8
2019-05-16T10:17:58.637Z,20.8
2019-05-16T10:18:48.708Z,20.9
2019-05-16T10:19:37.513Z,20.8
2019-05-16T10:20:28.501Z,20.8
2019-05-16T10:21:21.532Z,20.8
2019-05-16T10:22:08.524Z,20.9
2019-05-16T10:22:59.097Z,20.9
2019-05-16T10:23:48.101Z,20.9
2019-05-16T10:24:38.630Z,20.8
2019-05-16T10:25:28.965Z,20.9
2019-05-16T10:26:19.988Z,20.9
2019-05-16T10:27:08.612Z,20.9
2019-05-16T10:27:58.704Z,20.9
2019-05-16T10:28:48.727Z,20.9
2019-05-16T10:29:38.942Z,20.9
2019-05-16T10:30:28.850Z,20.9
2019-05-16T10:31:19.197Z,20.8
2019-05-16T10:32:09.027Z,20.9
2019-05-16T10:33:01.905Z,20.9
2019-05-16T10:33:48.865Z,20.9
2019-05-16T10:34:39.168Z,20.9
2019-05-16T10:35:31.154Z,20.9
2019-05-16T10:36:22.763Z,20.9
2019-05-16T10:37:09.359Z,20.8
2019-05-16T10:37:59.414Z,20.8
2019-05-16T10:38:49.629Z,20.9
2019-05-16T10:39:39.536Z,20.8
2019-05-16T10:40:29.599Z,20.8
2019-05-16T10:41:19.653Z,20.9
2019-05-16T10:42:29.623Z,20.8
2019-05-16T10:43:49.836Z,20.9
2019-05-16T10:44:40.079Z,20.9
2019-05-16T10:45:29.963Z,20.8
2019-05-16T10:46:19.765Z,20.9
2019-05-16T10:47:09.561Z,20.8
2019-05-16T10:48:00.158Z,20.8
2019-05-16T10:48:50.228Z,20.8
2019-05-16T10:49:42.514Z,20.9
2019-05-16T10:50:30.407Z,20.8
2019-05-16T10:51:23.730Z,20.8
2019-05-16T10:52:10.473Z,20.8
2019-05-16T10:54:08.455Z,20.8
2019-05-16T10:55:18.958Z,20.8
2019-05-16T10:56:09.029Z,20.9
2019-05-16T10:56:59.180Z,20.8
2019-05-16T10:57:57.347Z,20.8
2019-05-16T11:00:01.703Z,20.8
2019-05-16T11:02:30.237Z,20.9
2019-05-16T11:03:20.065Z,20.8
2019-05-16T11:04:10.075Z,20.8
2019-05-16T11:05:40.845Z,20.8
2019-05-16T11:07:20.865Z,20.8
2019-05-16T11:08:11.043Z,20.8
2019-05-16T11:09:01.014Z,20.9
2019-05-16T11:10:06.885Z,20.9
2019-05-16T11:10:41.365Z,20.8
2019-05-16T11:11:31.192Z,20.8
2019-05-16T11:12:21.814Z,20.8
2019-05-16T11:14:01.097Z,20.8
2019-05-16T11:14:51.435Z,20.8
2019-05-16T11:15:41.505Z,20.8
2019-05-16T11:16:31.557Z,20.8
2019-05-16T11:17:21.656Z,20.8
2019-05-16T11:18:11.687Z,20.8
2019-05-16T11:19:24.901Z,20.8
2019-05-16T11:20:49.736Z,20.8
2019-05-16T11:21:31.667Z,20.8
2019-05-16T11:22:22.012Z,20.8
2019-05-16T11:23:11.794Z,20.8
2019-05-16T11:24:01.858Z,20.8
2019-05-16T11:24:51.909Z,20.8
2019-05-16T11:25:41.975Z,20.8
2019-05-16T11:26:32.321Z,20.8
2019-05-16T11:27:22.114Z,20.8
2019-05-16T11:28:12.187Z,20.8
2019-05-16T11:29:02.232Z,20.8
2019-05-16T11:29:52.556Z,20.8
2019-05-16T11:30:42.641Z,20.8
2019-05-16T11:31:32.418Z,20.8
2019-05-16T11:32:22.480Z,20.8
2019-05-16T11:33:12.813Z,20.8
2019-05-16T11:34:02.876Z,20.8
2019-05-16T11:34:52.938Z,20.8
2019-05-16T11:35:42.724Z,20.8
2019-05-16T11:36:32.801Z,20.8
2019-05-16T11:37:23.126Z,20.8
2019-05-16T11:38:12.928Z,20.8
2019-05-16T11:39:03.247Z,20.8
2019-05-16T11:39:53.051Z,20.8
2019-05-16T11:40:43.103Z,20.8
2019-05-16T11:41:33.442Z,20.8
2019-05-16T11:42:22.989Z,20.8
2019-05-16T11:43:22.400Z,20.8
2019-05-16T11:44:03.633Z,20.8
2019-05-16T11:44:53.693Z,20.8
2019-05-16T11:45:43.747Z,20.8
2019-05-16T11:46:33.815Z,20.8
2019-05-16T11:47:23.877Z,20.8
2019-05-16T11:48:13.945Z,20.8
2019-05-16T11:49:03.742Z,20.8
2019-05-16T11:49:54.065Z,20.8
2019-05-16T11:50:44.155Z,20.8
2019-05-16T11:51:33.918Z,20.8
2019-05-16T11:52:23.977Z,20.8
2019-05-16T11:53:14.060Z,20.8
2019-05-16T11:54:06.756Z,20.8
2019-05-16T11:54:54.446Z,20.8
2019-05-16T11:56:01.975Z,20.8
2019-05-16T11:57:24.637Z,20.8
2019-05-16T11:58:14.423Z,20.8
2019-05-16T11:59:04.500Z,20.8
2019-05-16T11:59:57.485Z,20.8
2019-05-16T12:00:47.873Z,20.8
2019-05-16T12:01:37.836Z,20.8
2019-05-16T12:02:28.282Z,20.8
2019-05-16T12:03:17.393Z,20.8
2019-05-16T12:05:30.515Z,20.8
2019-05-16T14:06:26.557Z,20.9
2019-05-16T14:07:18.239Z,20.9
2019-05-16T14:08:07.932Z,20.9
2019-05-16T14:08:57.550Z,20.8
2019-05-16T14:09:47.929Z,20.9
2019-05-16T14:10:38.662Z,20.9
2019-05-16T14:11:26.924Z,20.9
2019-05-16T14:12:18.464Z,20.9
2019-05-16T14:13:08.577Z,20.9
2019-05-16T14:13:57.156Z,20.9
2019-05-16T14:14:48.666Z,20.9
2019-05-16T14:15:37.759Z,20.9
2019-05-16T14:16:27.956Z,20.9
2019-05-16T14:17:18.961Z,20.9
2019-05-16T14:18:08.810Z,20.9
2019-05-16T14:18:58.445Z,20.9
2019-05-16T14:19:49.047Z,20.9
2019-05-16T14:20:38.844Z,20.9
2019-05-16T14:21:27.428Z,20.9
2019-05-16T14:22:18.363Z,20.9
2019-05-16T14:23:09.241Z,20.9
2019-05-16T14:23:57.904Z,20.9
2019-05-16T14:24:49.321Z,20.9
2019-05-16T14:25:38.617Z,20.9
2019-05-16T14:26:28.333Z,20.9
2019-05-16T14:27:18.121Z,20.9
2019-05-16T14:28:08.928Z,20.9
2019-05-16T14:28:59.051Z,20.8
2019-05-16T14:29:48.826Z,20.9
2019-05-16T14:30:38.383Z,20.9
2019-05-16T14:31:28.712Z,20.9
2019-05-16T14:32:20.982Z,20.9
2019-05-16T14:33:17.606Z,20.9
2019-05-16T14:33:58.908Z,20.9
2019-05-16T14:34:52.621Z,20.9
2019-05-16T14:35:39.015Z,20.9
2019-05-16T14:36:28.586Z,20.9
2019-05-16T14:37:19.164Z,20.9
2019-05-16T14:38:08.961Z,20.9
2019-05-16T14:38:59.266Z,20.9
2019-05-16T14:39:49.873Z,20.9
2019-05-16T14:40:39.133Z,20.9
2019-05-16T14:41:29.570Z,20.9
2019-05-16T14:42:19.568Z,20.9
2019-05-16T14:43:09.980Z,20.9
2019-05-16T14:43:59.693Z,20.9
2019-05-16T14:45:13.595Z,20.9
2019-05-16T14:46:29.861Z,20.9
2019-05-16T14:47:19.672Z,20.9
2019-05-16T14:48:09.975Z,20.9
2019-05-16T14:49:00.030Z,20.9
2019-05-16T14:49:50.234Z,20.9
2019-05-16T14:50:40.153Z,20.9
2019-05-16T14:51:32.979Z,20.9
2019-05-16T14:52:20.022Z,20.9
2019-05-16T14:53:10.345Z,20.9
2019-05-16T14:54:00.414Z,20.9
2019-05-16T14:54:50.187Z,20.9
2019-05-16T14:55:40.533Z,20.9
2019-05-16T14:56:30.644Z,20.9
2019-05-16T14:57:20.391Z,20.9
2019-05-16T14:58:10.709Z,20.9
2019-05-16T14:59:00.792Z,20.9
2019-05-16T14:59:50.563Z,20.9
2019-05-16T15:00:40.914Z,20.9
2019-05-16T15:01:31.013Z,20.9
2019-05-16T15:02:21.046Z,20.9
2019-05-16T15:03:11.096Z,20.9
2019-05-16T15:04:00.902Z,20.9
2019-05-16T15:04:51.216Z,20.9
2019-05-16T15:05:43.760Z,20.9
2019-05-16T15:06:31.354Z,20.9
2019-05-16T15:07:21.163Z,20.9
2019-05-16T15:08:11.659Z,20.9
2019-05-16T15:09:01.538Z,20.9
2019-05-16T15:09:51.351Z,20.9
2019-05-16T15:10:41.681Z,20.9
2019-05-16T15:11:31.446Z,20.9
2019-05-16T15:12:21.799Z,20.9
2019-05-16T15:13:11.576Z,20.9
2019-05-16T15:14:01.933Z,20.9
2019-05-16T15:14:51.707Z,20.9
2019-05-16T15:16:32.111Z,20.9
2019-05-16T15:17:22.165Z,20.9
2019-05-16T15:18:11.952Z,20.9
2019-05-16T15:19:02.291Z,20.9
2019-05-16T15:19:51.818Z,20.8
2019-05-16T15:20:42.418Z,20.9
2019-05-16T15:21:32.207Z,20.9
2019-05-16T15:22:22.543Z,20.9
2019-05-16T15:23:12.605Z,20.9
2019-05-16T15:24:02.670Z,20.9
2019-05-16T15:24:52.455Z,20.9
2019-05-16T15:25:42.533Z,20.9
2019-05-16T15:26:32.578Z,20.9
2019-05-16T15:27:22.917Z,20.9
2019-05-16T15:28:12.976Z,20.9
2019-05-16T15:29:03.145Z,20.9
2019-05-16T15:29:52.856Z,20.9
2019-05-16T15:30:42.897Z,20.9
2019-05-16T15:31:33.240Z,20.9
2019-05-16T15:32:23.307Z,20.9
2019-05-16T15:33:13.379Z,20.9
2019-05-16T15:34:03.433Z,20.9
2019-05-16T15:34:53.493Z,20.9
2019-05-16T15:35:43.600Z,20.9
2019-05-16T15:36:33.351Z,20.9
2019-05-16T15:37:23.686Z,20.9
2019-05-16T15:38:13.742Z,20.9
2019-05-16T15:39:03.869Z,20.9
2019-05-16T15:39:55.422Z,20.9
2019-05-16T15:40:43.929Z,20.9
2019-05-16T15:41:33.994Z,20.9
2019-05-16T15:42:24.057Z,20.9
2019-05-16T15:43:17.602Z,20.9
2019-05-16T15:44:04.192Z,20.9
2019-05-16T15:44:53.696Z,20.9
2019-05-16T15:45:53.621Z,20.9
2019-05-16T15:46:34.091Z,20.9
2019-05-16T15:47:24.440Z,20.9
2019-05-16T15:48:16.982Z,20.9
2019-05-16T15:49:10.488Z,20.9
2019-05-16T15:49:56.609Z,20.9
2019-05-16T15:50:44.419Z,20.9
2019-05-16T15:51:36.745Z,20.9
2019-05-16T15:52:27.506Z,20.9
2019-05-16T15:53:17.460Z,20.9
2019-05-16T15:54:07.219Z,20.9
2019-05-16T15:54:54.999Z,20.9
2019-05-16T15:55:47.523Z,20.9
2019-05-16T15:56:37.241Z,20.9
2019-05-16T15:57:31.456Z,20.9
2019-05-16T15:58:18.742Z,20.9
2019-05-16T15:59:10.563Z,20.9
2019-05-16T15:59:58.054Z,20.9
2019-05-16T16:00:49.126Z,20.9
2019-05-16T16:01:38.686Z,20.9
2019-05-16T16:02:28.181Z,20.9
2019-05-16T16:03:18.016Z,20.9
2019-05-16T16:04:08.058Z,20.9
2019-05-16T16:06:28.541Z,20.9
2019-05-16T16:07:19.182Z,20.9
2019-05-16T16:08:07.710Z,20.9
2019-05-16T16:08:56.937Z,20.9
2019-05-16T16:09:48.095Z,20.9
2019-05-16T16:10:38.922Z,20.9
2019-05-16T16:11:28.313Z,20.9
2019-05-16T16:12:18.017Z,20.9
2019-05-16T16:13:07.885Z,20.9
2019-05-16T16:13:58.454Z,20.9
2019-05-16T16:14:47.849Z,20.9
2019-05-16T16:15:57.472Z,20.9
2019-05-16T16:16:27.830Z,20.9
2019-05-16T16:17:18.704Z,20.9
2019-05-16T16:18:09.819Z,20.9
2019-05-16T16:18:58.487Z,21
2019-05-16T16:19:48.057Z,21
2019-05-16T16:20:37.777Z,21
2019-05-16T16:21:28.234Z,21
2019-05-16T16:22:18.785Z,21
2019-05-16T16:23:07.775Z,21
2019-05-16T16:23:58.364Z,21
2019-05-16T16:24:48.932Z,21
2019-05-16T16:25:38.202Z,21
2019-05-16T16:26:28.284Z,21
2019-05-16T16:27:18.014Z,21
2019-05-16T16:28:08.544Z,21.1
2019-05-16T16:28:58.414Z,21.1
2019-05-16T16:29:49.134Z,21.1
2019-05-16T16:30:38.398Z,21.1
2019-05-16T16:31:28.612Z,21.1
2019-05-16T16:32:18.673Z,21.1
2019-05-16T16:33:30.308Z,21.1
2019-05-16T16:34:50.071Z,21.1
2019-05-16T16:35:39.163Z,21.1
2019-05-16T16:36:28.966Z,21.1
2019-05-16T16:37:19.048Z,21.1
2019-05-16T16:38:09.091Z,21.1
2019-05-16T16:40:39.278Z,21.1
2019-05-16T16:49:50.005Z,21.2
2019-05-16T16:51:30.115Z,21.2
2019-05-16T16:52:20.173Z,21.2
2019-05-16T16:53:09.959Z,21.2
2019-05-16T16:54:00.293Z,21.2
2019-05-16T16:54:50.065Z,21.2
2019-05-16T16:55:39.875Z,21.2
2019-05-16T16:56:30.472Z,21.2
2019-05-16T16:57:20.271Z,21.2
2019-05-16T16:58:10.815Z,21.2
2019-05-16T16:59:00.692Z,21.2
2019-05-16T16:59:50.723Z,21.2
2019-05-16T17:00:40.812Z,21.3
2019-05-16T17:01:30.849Z,21.2
2019-05-16T17:02:20.937Z,21.2
2019-05-16T17:03:12.178Z,21.3
2019-05-16T17:04:01.035Z,21.3
2019-05-16T17:04:52.695Z,21.3
2019-05-16T17:05:40.891Z,21.3
2019-05-16T17:06:31.254Z,21.3
2019-05-16T17:07:21.294Z,21.3
2019-05-16T17:08:11.357Z,21.3
2019-05-16T17:09:01.427Z,21.3
2019-05-16T17:09:51.489Z,21.3
2019-05-16T17:10:41.541Z,21.3
2019-05-16T17:11:31.601Z,21.3
2019-05-16T17:12:21.691Z,21.3
2019-05-16T17:13:11.730Z,21.3
2019-05-16T17:14:01.801Z,21.3
2019-05-16T17:14:51.840Z,21.3
2019-05-16T17:15:43.290Z,21.3
2019-05-16T17:16:31.976Z,21.3
2019-05-16T17:17:21.746Z,21.3
2019-05-16T17:18:12.098Z,21.3
2019-05-16T17:19:02.166Z,21.3
2019-05-16T17:19:52.266Z,21.3
2019-05-16T17:20:41.739Z,21.3
2019-05-16T17:21:32.349Z,21.3
2019-05-16T17:22:22.420Z,21.3
2019-05-16T17:23:12.473Z,21.3
2019-05-16T17:24:02.543Z,21.3
2019-05-16T17:24:52.597Z,21.3
2019-05-16T17:25:42.659Z,21.3
2019-05-16T17:26:32.450Z,21.3
2019-05-16T17:27:22.785Z,21.3
2019-05-16T17:28:12.838Z,21.4
2019-05-16T17:29:02.998Z,21.3
2019-05-16T17:29:52.982Z,21.4
2019-05-16T17:30:43.028Z,21.4
2019-05-16T17:31:33.103Z,21.4
2019-05-16T17:32:23.155Z,21.4